Lionhead Wind

Lionhead weather stationLocated on Lionhead Ridge near West Yellowstone. Use the nearest SNOTEL station for snow depth data: Madison Plateau. The data on this page is also available to view at dataGarrison.com.

Elevation
9420ft
Jump to table bottom
Date Time Temperature
deg F
RH, % Wind Speed Wind Gust Wind Direction Pressure Light
03/31/23 12:00 17.8 97 19 33 SW - 223 710.800 0
03/31/23 11:00 18.2 97 12 20 SW - 223 710.300 0
03/31/23 10:00 19.0 98 11 16 SW - 230 710.200 0
03/31/23 09:00 23.1 96 8 23 W - 270 709.320 0
03/31/23 08:00 19.2 96 6 16 W - 282 708.840 0
03/31/23 07:00 15.5 97 3 13 NW - 313 708.280 0
03/31/23 06:00 12.5 96 3 12 W - 292 707.660 0
03/31/23 05:00 10.6 96 2 11 SW - 225 707.040 0
03/31/23 04:00 10.8 96 6 14 SW - 236 706.580 0
03/31/23 03:00 11.4 96 10 15 SW - 247 705.700 0
03/31/23 02:00 11.3 96 7 11 W - 257 705.600 0
03/31/23 01:00 11.7 96 3 10 W - 289 705.540 0
03/31/23 00:00 12.7 96 5 10 W - 278 705.460 0
03/30/23 23:00 13.1 97 5 9 W - 277 705.140 0
03/30/23 22:00 13.9 97 7 10 W - 248 705.300 0
03/30/23 21:00 13.7 97 7 11 W - 251 705.200 0
03/30/23 20:00 13.7 97 7 13 W - 260 704.980 0
03/30/23 19:00 14.2 97 11 17 SW - 247 704.400 0
03/30/23 18:00 15.0 97 10 17 SW - 241 704.080 0
03/30/23 17:00 15.1 97 14 20 SW - 232 703.820 0
03/30/23 16:00 16.3 97 16 25 SW - 229 703.520 0
03/30/23 15:00 16.8 97 16 26 SW - 236 702.960 0
03/30/23 14:00 19.2 98 14 21 SW - 230 702.840 0
03/30/23 13:00 20.0 98 14 21 SW - 225 702.800 0
03/30/23 12:00 18.1 98 12 23 SW - 209 702.440 0
03/30/23 11:00 19.3 98 11 17 SW - 230 702.320 0
03/30/23 10:00 19.9 98 11 19 SW - 213 702.540 0
03/30/23 09:00 19.5 98 10 18 SW - 219 702.020 0
03/30/23 08:00 18.5 98 10 16 SW - 218 702.100 0
03/30/23 07:00 17.3 98 11 17 SW - 225 702.560 0
03/30/23 06:00 17.4 98 13 21 SW - 227 702.100 0
03/30/23 05:00 17.9 98 17 24 SW - 233 701.900 0
03/30/23 04:00 20.2 98 19 26 SW - 208 701.980 0
03/30/23 03:00 21.5 99 7 19 S - 173 702.680 0
03/30/23 02:00 21.8 99 7 11 SE - 132 703.160 0
03/30/23 01:00 21.9 99 8 13 E - 104 703.940 0
03/30/23 00:00 22.2 99 8 14 E - 88 704.220 0
03/29/23 23:00 22.2 99 8 12 NE - 67 704.940 0
03/29/23 22:00 22.3 99 7 11 SE - 125 705.380 0
03/29/23 21:00 22.2 99 8 12 SE - 135 706.140 0
03/29/23 20:00 21.9 99 9 12 S - 159 706.000 0
03/29/23 19:00 21.5 98 10 14 S - 192 706.320 0
03/29/23 18:00 21.6 98 14 20 SW - 229 706.520 0
03/29/23 17:00 22.3 98 19 30 SW - 222 706.600 0
03/29/23 16:00 32.0 98 19 27 SW - 213 706.900 0
03/29/23 15:00 23.0 97 17 29 SW - 226 707.300 0
03/29/23 14:00 23.1 91 22 36 SW - 211 707.320 0
03/29/23 13:00 24.8 74 17 34 S - 198 707.640 0
03/29/23 12:00 23.8 80 19 30 SW - 204 708.100 0
03/29/23 11:00 24.9 74 13 29 S - 199 708.500 0